OEBA/ABT METAR and TAF weather

Enter ICAO airport designator
Station Type Date Time Source
OEBA METAR 2020/11/25 22:00 UTC NOAA

OEBA 252200Z 00000KT CAVOK 18/14 Q1020 NOSIG


Station Type Date Time Source
OEBA Decoded METAR 2020/11/25 22:00 UTC NOAA

Al Baha, Saudi Arabia (OEBA) 20-18N 041-38E 1662M
Nov 25, 2020 - 05:00 PM EST / 2020.11.25 2200 UTC
Wind: Calm:0
Visibility: greater than 7 mile(s):0
Temperature: 64 F (18 C)
Dew Point: 57 F (14 C)
Relative Humidity: 77%
Pressure (altimeter): 30.12 in. Hg (1020 hPa)
ob: OEBA 252200Z 00000KT CAVOK 18/14 Q1020 NOSIG
cycle: 22

Station Type Date Time Source
OEBA TAF 2020/11/25 12:03 UTC NOAA

TAF OEBA 251100Z 2512/2618 22012KT 9999 FEW020 PROB30
TEMPO 2512/2518 7000 FEW025CB
BECMG 2516/2518 VRB03KT
BECMG 2606/2608 20015KT
TEMPO 2610/2618 6000 TSRA SCT020 FEW025CB

Example: see airport list